sensor_id;sensor_type;location;lat;lon;timestamp;temperature;humidity
43963;DHT22;29622;45.534;9.242;2024-03-06T00:03:02;13.70;59.50
43963;DHT22;29622;45.534;9.242;2024-03-06T00:08:04;14.10;60.40
43963;DHT22;29622;45.534;9.242;2024-03-06T00:13:17;14.10;59.60
43963;DHT22;29622;45.534;9.242;2024-03-06T00:23:52;14.80;59.70
43963;DHT22;29622;45.534;9.242;2024-03-06T00:28:56;14.80;58.20
43963;DHT22;29622;45.534;9.242;2024-03-06T00:34:55;14.20;57.90
43963;DHT22;29622;45.534;9.242;2024-03-06T00:39:59;13.80;58.80
43963;DHT22;29622;45.534;9.242;2024-03-06T00:45:00;14.10;59.70
43963;DHT22;29622;45.534;9.242;2024-03-06T00:50:01;14.10;58.20
43963;DHT22;29622;45.534;9.242;2024-03-06T00:55:02;13.60;58.80
43963;DHT22;29622;45.534;9.242;2024-03-06T01:00:13;13.70;59.30
43963;DHT22;29622;45.534;9.242;2024-03-06T01:05:16;13.50;59.50
43963;DHT22;29622;45.534;9.242;2024-03-06T01:10:17;13.40;59.40
43963;DHT22;29622;45.534;9.242;2024-03-06T01:15:19;13.30;59.20
43963;DHT22;29622;45.534;9.242;2024-03-06T01:20:30;13.30;59.40
43963;DHT22;29622;45.534;9.242;2024-03-06T01:25:31;13.40;59.10
43963;DHT22;29622;45.534;9.242;2024-03-06T01:30:32;13.50;58.70
43963;DHT22;29622;45.534;9.242;2024-03-06T01:35:39;13.60;58.40
43963;DHT22;29622;45.534;9.242;2024-03-06T01:40:43;13.40;58.00
43963;DHT22;29622;45.534;9.242;2024-03-06T01:45:52;12.90;58.40
43963;DHT22;29622;45.534;9.242;2024-03-06T01:50:57;12.90;59.10
43963;DHT22;29622;45.534;9.242;2024-03-06T01:56:00;12.80;58.80
43963;DHT22;29622;45.534;9.242;2024-03-06T02:01:02;12.50;58.80
43963;DHT22;29622;45.534;9.242;2024-03-06T02:06:03;12.40;59.10
43963;DHT22;29622;45.534;9.242;2024-03-06T02:11:05;12.20;59.30
43963;DHT22;29622;45.534;9.242;2024-03-06T02:16:07;12.20;59.50
43963;DHT22;29622;45.534;9.242;2024-03-06T02:21:08;12.10;59.50
43963;DHT22;29622;45.534;9.242;2024-03-06T02:26:10;12.00;59.50
43963;DHT22;29622;45.534;9.242;2024-03-06T02:31:11;11.90;59.60
43963;DHT22;29622;45.534;9.242;2024-03-06T02:36:24;11.80;59.80
43963;DHT22;29622;45.534;9.242;2024-03-06T02:41:25;12.00;60.40
43963;DHT22;29622;45.534;9.242;2024-03-06T02:46:26;12.20;59.70
43963;DHT22;29622;45.534;9.242;2024-03-06T02:51:47;12.10;59.80
43963;DHT22;29622;45.534;9.242;2024-03-06T02:57:02;11.90;59.80
43963;DHT22;29622;45.534;9.242;2024-03-06T03:02:03;11.80;59.80
43963;DHT22;29622;45.534;9.242;2024-03-06T03:07:04;11.70;60.00
43963;DHT22;29622;45.534;9.242;2024-03-06T03:12:38;11.80;60.50
43963;DHT22;29622;45.534;9.242;2024-03-06T03:17:39;12.10;60.30
43963;DHT22;29622;45.534;9.242;2024-03-06T03:27:53;12.00;59.90
43963;DHT22;29622;45.534;9.242;2024-03-06T03:33:02;11.80;60.00
43963;DHT22;29622;45.534;9.242;2024-03-06T03:38:06;11.70;60.40
43963;DHT22;29622;45.534;9.242;2024-03-06T03:43:18;11.70;60.30
43963;DHT22;29622;45.534;9.242;2024-03-06T03:48:21;11.70;60.60
43963;DHT22;29622;45.534;9.242;2024-03-06T03:53:30;12.10;61.60
43963;DHT22;29622;45.534;9.242;2024-03-06T03:58:51;12.60;61.30
43963;DHT22;29622;45.534;9.242;2024-03-06T04:05:11;13.20;62.90
43963;DHT22;29622;45.534;9.242;2024-03-06T04:16:30;13.10;59.50
43963;DHT22;29622;45.534;9.242;2024-03-06T04:21:31;13.20;60.20
43963;DHT22;29622;45.534;9.242;2024-03-06T04:26:32;13.00;59.40
43963;DHT22;29622;45.534;9.242;2024-03-06T04:31:35;12.70;59.20
43963;DHT22;29622;45.534;9.242;2024-03-06T04:36:36;12.30;59.30
43963;DHT22;29622;45.534;9.242;2024-03-06T04:41:45;12.10;59.40
43963;DHT22;29622;45.534;9.242;2024-03-06T04:46:50;11.90;59.50
43963;DHT22;29622;45.534;9.242;2024-03-06T04:51:51;11.60;59.60
43963;DHT22;29622;45.534;9.242;2024-03-06T04:57:04;11.40;59.90
43963;DHT22;29622;45.534;9.242;2024-03-06T05:02:11;11.30;60.30
43963;DHT22;29622;45.534;9.242;2024-03-06T05:07:12;11.40;60.40
43963;DHT22;29622;45.534;9.242;2024-03-06T05:12:13;11.40;60.30
43963;DHT22;29622;45.534;9.242;2024-03-06T05:17:14;11.40;60.20
43963;DHT22;29622;45.534;9.242;2024-03-06T05:27:44;11.20;60.10
43963;DHT22;29622;45.534;9.242;2024-03-06T05:33:11;11.00;60.20
43963;DHT22;29622;45.534;9.242;2024-03-06T05:38:13;11.10;60.50
43963;DHT22;29622;45.534;9.242;2024-03-06T05:43:14;11.20;60.30
43963;DHT22;29622;45.534;9.242;2024-03-06T05:48:24;11.40;61.30
43963;DHT22;29622;45.534;9.242;2024-03-06T05:53:44;12.10;62.00
43963;DHT22;29622;45.534;9.242;2024-03-06T05:58:51;12.70;60.30
43963;DHT22;29622;45.534;9.242;2024-03-06T06:03:52;13.30;59.70
43963;DHT22;29622;45.534;9.242;2024-03-06T06:08:53;13.10;58.60
43963;DHT22;29622;45.534;9.242;2024-03-06T06:13:54;12.70;58.40
43963;DHT22;29622;45.534;9.242;2024-03-06T06:18:57;12.40;58.70
43963;DHT22;29622;45.534;9.242;2024-03-06T06:23:58;12.20;58.80
43963;DHT22;29622;45.534;9.242;2024-03-06T06:28:59;12.10;59.10
43963;DHT22;29622;45.534;9.242;2024-03-06T06:34:00;12.70;60.10
43963;DHT22;29622;45.534;9.242;2024-03-06T06:39:01;13.40;59.30
43963;DHT22;29622;45.534;9.242;2024-03-06T06:44:06;13.30;58.20
43963;DHT22;29622;45.534;9.242;2024-03-06T06:49:07;14.00;59.80
43963;DHT22;29622;45.534;9.242;2024-03-06T06:54:09;14.60;58.70
43963;DHT22;29622;45.534;9.242;2024-03-06T06:59:10;13.90;58.00
43963;DHT22;29622;45.534;9.242;2024-03-06T07:04:13;13.60;58.40
43963;DHT22;29622;45.534;9.242;2024-03-06T07:09:17;13.10;58.00
43963;DHT22;29622;45.534;9.242;2024-03-06T07:14:19;12.50;57.90
43963;DHT22;29622;45.534;9.242;2024-03-06T07:19:19;12.00;58.80
43963;DHT22;29622;45.534;9.242;2024-03-06T07:24:20;12.90;60.40
43963;DHT22;29622;45.534;9.242;2024-03-06T07:29:21;12.60;58.70
43963;DHT22;29622;45.534;9.242;2024-03-06T07:34:23;12.20;58.60
43963;DHT22;29622;45.534;9.242;2024-03-06T07:39:36;11.90;58.30
43963;DHT22;29622;45.534;9.242;2024-03-06T07:44:43;11.60;58.70
43963;DHT22;29622;45.534;9.242;2024-03-06T07:49:44;11.60;58.90
43963;DHT22;29622;45.534;9.242;2024-03-06T07:54:46;11.50;58.70
43963;DHT22;29622;45.534;9.242;2024-03-06T07:59:55;11.40;58.70
43963;DHT22;29622;45.534;9.242;2024-03-06T08:05:15;11.40;58.90
43963;DHT22;29622;45.534;9.242;2024-03-06T08:10:36;11.40;58.90
43963;DHT22;29622;45.534;9.242;2024-03-06T08:15:37;11.70;59.00
43963;DHT22;29622;45.534;9.242;2024-03-06T08:20:39;11.80;58.70
43963;DHT22;29622;45.534;9.242;2024-03-06T08:25:40;11.70;58.50
43963;DHT22;29622;45.534;9.242;2024-03-06T08:30:43;11.80;58.60
43963;DHT22;29622;45.534;9.242;2024-03-06T08:35:45;11.80;58.40
43963;DHT22;29622;45.534;9.242;2024-03-06T08:40:52;12.10;58.70
43963;DHT22;29622;45.534;9.242;2024-03-06T08:45:53;12.20;58.40
43963;DHT22;29622;45.534;9.242;2024-03-06T08:50:54;12.30;58.30
43963;DHT22;29622;45.534;9.242;2024-03-06T08:56:08;12.40;58.10
43963;DHT22;29622;45.534;9.242;2024-03-06T09:01:09;12.50;57.90
43963;DHT22;29622;45.534;9.242;2024-03-06T09:06:10;12.50;57.80
43963;DHT22;29622;45.534;9.242;2024-03-06T09:11:11;12.60;57.80
43963;DHT22;29622;45.534;9.242;2024-03-06T09:16:12;12.60;57.60
43963;DHT22;29622;45.534;9.242;2024-03-06T09:21:14;12.70;57.50
43963;DHT22;29622;45.534;9.242;2024-03-06T09:26:15;12.60;57.50
43963;DHT22;29622;45.534;9.242;2024-03-06T09:31:16;12.70;58.00
43963;DHT22;29622;45.534;9.242;2024-03-06T09:36:17;12.80;57.50
43963;DHT22;29622;45.534;9.242;2024-03-06T09:41:18;12.90;57.30
43963;DHT22;29622;45.534;9.242;2024-03-06T09:46:19;12.90;57.10
43963;DHT22;29622;45.534;9.242;2024-03-06T09:51:20;13.00;57.00
43963;DHT22;29622;45.534;9.242;2024-03-06T09:56:21;13.20;57.10
43963;DHT22;29622;45.534;9.242;2024-03-06T10:01:24;13.30;57.00
43963;DHT22;29622;45.534;9.242;2024-03-06T10:06:32;13.50;57.40
43963;DHT22;29622;45.534;9.242;2024-03-06T10:11:44;14.30;57.70
43963;DHT22;29622;45.534;9.242;2024-03-06T10:17:08;14.80;56.60
43963;DHT22;29622;45.534;9.242;2024-03-06T10:22:32;15.20;56.10
43963;DHT22;29622;45.534;9.242;2024-03-06T10:27:33;15.20;55.50
43963;DHT22;29622;45.534;9.242;2024-03-06T10:32:34;15.20;55.70
43963;DHT22;29622;45.534;9.242;2024-03-06T10:37:39;15.40;55.40
43963;DHT22;29622;45.534;9.242;2024-03-06T10:42:51;15.40;55.00
43963;DHT22;29622;45.534;9.242;2024-03-06T10:47:53;15.30;55.20
43963;DHT22;29622;45.534;9.242;2024-03-06T10:52:55;15.30;55.70
43963;DHT22;29622;45.534;9.242;2024-03-06T10:57:57;15.50;55.40
43963;DHT22;29622;45.534;9.242;2024-03-06T11:02:59;15.60;55.10
43963;DHT22;29622;45.534;9.242;2024-03-06T11:08:14;15.70;54.90
43963;DHT22;29622;45.534;9.242;2024-03-06T11:13:31;15.60;54.60
43963;DHT22;29622;45.534;9.242;2024-03-06T11:29:22;15.60;54.40
43963;DHT22;29622;45.534;9.242;2024-03-06T11:34:39;15.40;54.60
43963;DHT22;29622;45.534;9.242;2024-03-06T11:39:40;15.40;55.00
43963;DHT22;29622;45.534;9.242;2024-03-06T11:44:54;16.10;55.40
43963;DHT22;29622;45.534;9.242;2024-03-06T11:49:59;17.00;55.30
43963;DHT22;29622;45.534;9.242;2024-03-06T11:55:00;18.00;54.70
43963;DHT22;29622;45.534;9.242;2024-03-06T12:00:03;18.80;53.70
43963;DHT22;29622;45.534;9.242;2024-03-06T12:05:10;18.80;52.30
43963;DHT22;29622;45.534;9.242;2024-03-06T12:10:26;17.70;52.40
43963;DHT22;29622;45.534;9.242;2024-03-06T12:15:28;16.40;52.80
43963;DHT22;29622;45.534;9.242;2024-03-06T12:20:52;15.50;53.20
43963;DHT22;29622;45.534;9.242;2024-03-06T12:26:36;14.60;54.10
43963;DHT22;29622;45.534;9.242;2024-03-06T12:31:38;14.20;54.70
43963;DHT22;29622;45.534;9.242;2024-03-06T12:36:40;13.80;55.00
43963;DHT22;29622;45.534;9.242;2024-03-06T12:41:41;13.60;55.40
43963;DHT22;29622;45.534;9.242;2024-03-06T12:46:42;13.50;55.20
43963;DHT22;29622;45.534;9.242;2024-03-06T12:52:16;13.40;55.20
43963;DHT22;29622;45.534;9.242;2024-03-06T12:57:22;13.50;54.80
43963;DHT22;29622;45.534;9.242;2024-03-06T13:02:30;13.50;54.60
43963;DHT22;29622;45.534;9.242;2024-03-06T13:07:57;13.50;54.50
43963;DHT22;29622;45.534;9.242;2024-03-06T13:13:17;13.60;53.80
43963;DHT22;29622;45.534;9.242;2024-03-06T13:18:18;13.60;53.60
43963;DHT22;29622;45.534;9.242;2024-03-06T13:23:22;13.90;53.60
43963;DHT22;29622;45.534;9.242;2024-03-06T13:28:23;14.40;53.70
43963;DHT22;29622;45.534;9.242;2024-03-06T13:33:24;15.10;53.80
43963;DHT22;29622;45.534;9.242;2024-03-06T13:38:26;15.40;52.50
43963;DHT22;29622;45.534;9.242;2024-03-06T13:43:28;15.40;52.10
43963;DHT22;29622;45.534;9.242;2024-03-06T13:48:43;15.70;52.30
43963;DHT22;29622;45.534;9.242;2024-03-06T13:53:44;15.80;51.70
43963;DHT22;29622;45.534;9.242;2024-03-06T13:58:47;15.80;51.90
43963;DHT22;29622;45.534;9.242;2024-03-06T14:03:48;16.00;51.50
43963;DHT22;29622;45.534;9.242;2024-03-06T14:08:49;16.40;52.50
43963;DHT22;29622;45.534;9.242;2024-03-06T14:13:50;16.80;52.80
43963;DHT22;29622;45.534;9.242;2024-03-06T14:18:51;17.50;52.40
43963;DHT22;29622;45.534;9.242;2024-03-06T14:24:01;17.60;50.80
43963;DHT22;29622;45.534;9.242;2024-03-06T14:29:07;17.50;50.00
43963;DHT22;29622;45.534;9.242;2024-03-06T14:34:08;17.40;50.40
43963;DHT22;29622;45.534;9.242;2024-03-06T14:39:09;17.30;49.90
43963;DHT22;29622;45.534;9.242;2024-03-06T14:44:11;17.20;49.50
43963;DHT22;29622;45.534;9.242;2024-03-06T14:49:14;17.20;49.30
43963;DHT22;29622;45.534;9.242;2024-03-06T14:54:16;17.40;49.40
43963;DHT22;29622;45.534;9.242;2024-03-06T14:59:17;17.60;49.00
43963;DHT22;29622;45.534;9.242;2024-03-06T15:04:19;17.50;49.20
43963;DHT22;29622;45.534;9.242;2024-03-06T15:09:21;17.30;48.80
43963;DHT22;29622;45.534;9.242;2024-03-06T15:14:29;16.90;48.80
43963;DHT22;29622;45.534;9.242;2024-03-06T15:19:31;17.20;50.00
43963;DHT22;29622;45.534;9.242;2024-03-06T15:24:32;18.00;50.80
43963;DHT22;29622;45.534;9.242;2024-03-06T15:29:55;18.60;50.30
43963;DHT22;29622;45.534;9.242;2024-03-06T15:34:56;19.10;50.30
43963;DHT22;29622;45.534;9.242;2024-03-06T15:40:13;19.30;49.40
43963;DHT22;29622;45.534;9.242;2024-03-06T15:45:17;19.20;49.10
43963;DHT22;29622;45.534;9.242;2024-03-06T15:50:18;19.30;49.30
43963;DHT22;29622;45.534;9.242;2024-03-06T15:55:18;19.60;49.50
43963;DHT22;29622;45.534;9.242;2024-03-06T16:00:22;20.00;48.60
43963;DHT22;29622;45.534;9.242;2024-03-06T16:05:23;20.20;48.70
43963;DHT22;29622;45.534;9.242;2024-03-06T16:10:25;20.50;48.90
43963;DHT22;29622;45.534;9.242;2024-03-06T16:15:26;20.80;48.40
43963;DHT22;29622;45.534;9.242;2024-03-06T16:20:31;20.50;46.50
43963;DHT22;29622;45.534;9.242;2024-03-06T16:25:32;19.80;46.20
43963;DHT22;29622;45.534;9.242;2024-03-06T16:30:32;19.70;47.30
43963;DHT22;29622;45.534;9.242;2024-03-06T16:35:36;19.80;46.80
43963;DHT22;29622;45.534;9.242;2024-03-06T16:40:37;20.00;47.20
43963;DHT22;29622;45.534;9.242;2024-03-06T16:45:38;19.70;46.80
43963;DHT22;29622;45.534;9.242;2024-03-06T16:50:39;19.60;46.80
43963;DHT22;29622;45.534;9.242;2024-03-06T16:55:40;19.60;47.60
43963;DHT22;29622;45.534;9.242;2024-03-06T17:00:45;19.70;48.20
43963;DHT22;29622;45.534;9.242;2024-03-06T17:05:59;19.80;47.60
43963;DHT22;29622;45.534;9.242;2024-03-06T17:11:11;19.20;45.60
43963;DHT22;29622;45.534;9.242;2024-03-06T17:16:12;18.20;46.10
43963;DHT22;29622;45.534;9.242;2024-03-06T17:21:16;17.60;46.80
43963;DHT22;29622;45.534;9.242;2024-03-06T17:26:17;17.70;48.00
43963;DHT22;29622;45.534;9.242;2024-03-06T17:31:19;18.20;48.70
43963;DHT22;29622;45.534;9.242;2024-03-06T17:36:25;18.70;47.40
43963;DHT22;29622;45.534;9.242;2024-03-06T17:41:26;18.50;46.10
43963;DHT22;29622;45.534;9.242;2024-03-06T17:46:30;18.00;46.10
43963;DHT22;29622;45.534;9.242;2024-03-06T17:51:33;17.50;46.20
43963;DHT22;29622;45.534;9.242;2024-03-06T17:56:35;17.30;46.80
43963;DHT22;29622;45.534;9.242;2024-03-06T18:01:37;17.00;46.40
43963;DHT22;29622;45.534;9.242;2024-03-06T18:06:39;16.50;46.90
43963;DHT22;29622;45.534;9.242;2024-03-06T18:11:39;16.50;47.50
43963;DHT22;29622;45.534;9.242;2024-03-06T18:16:42;17.30;49.10
43963;DHT22;29622;45.534;9.242;2024-03-06T18:21:45;18.30;49.30
43963;DHT22;29622;45.534;9.242;2024-03-06T18:26:46;19.10;48.40
43963;DHT22;29622;45.534;9.242;2024-03-06T18:31:47;18.80;46.50
43963;DHT22;29622;45.534;9.242;2024-03-06T18:36:48;18.00;46.30
43963;DHT22;29622;45.534;9.242;2024-03-06T18:41:49;17.40;46.70
43963;DHT22;29622;45.534;9.242;2024-03-06T18:47:15;17.70;49.00
43963;DHT22;29622;45.534;9.242;2024-03-06T18:52:18;18.70;49.10
43963;DHT22;29622;45.534;9.242;2024-03-06T18:57:19;19.00;47.20
43963;DHT22;29622;45.534;9.242;2024-03-06T19:02:20;19.10;47.10
43963;DHT22;29622;45.534;9.242;2024-03-06T19:07:21;19.40;47.90
43963;DHT22;29622;45.534;9.242;2024-03-06T19:12:22;19.70;47.90
43963;DHT22;29622;45.534;9.242;2024-03-06T19:17:27;20.00;47.50
43963;DHT22;29622;45.534;9.242;2024-03-06T19:22:28;20.30;47.80
43963;DHT22;29622;45.534;9.242;2024-03-06T19:27:29;20.60;47.90
43963;DHT22;29622;45.534;9.242;2024-03-06T19:32:30;20.60;46.90
43963;DHT22;29622;45.534;9.242;2024-03-06T19:37:32;20.30;46.40
43963;DHT22;29622;45.534;9.242;2024-03-06T19:42:36;20.00;46.60
43963;DHT22;29622;45.534;9.242;2024-03-06T19:47:37;19.60;47.30
43963;DHT22;29622;45.534;9.242;2024-03-06T19:52:39;19.60;47.40
43963;DHT22;29622;45.534;9.242;2024-03-06T19:57:40;19.40;46.50
43963;DHT22;29622;45.534;9.242;2024-03-06T20:02:41;19.00;46.00
43963;DHT22;29622;45.534;9.242;2024-03-06T20:07:42;18.60;45.90
43963;DHT22;29622;45.534;9.242;2024-03-06T20:12:43;18.10;46.10
43963;DHT22;29622;45.534;9.242;2024-03-06T20:17:44;17.80;46.50
43963;DHT22;29622;45.534;9.242;2024-03-06T20:22:45;17.90;46.70
43963;DHT22;29622;45.534;9.242;2024-03-06T20:27:46;18.10;47.20
43963;DHT22;29622;45.534;9.242;2024-03-06T20:32:47;17.70;46.50
43963;DHT22;29622;45.534;9.242;2024-03-06T20:37:48;17.00;46.70
43963;DHT22;29622;45.534;9.242;2024-03-06T20:42:49;16.20;47.20
43963;DHT22;29622;45.534;9.242;2024-03-06T20:47:50;15.70;48.00
43963;DHT22;29622;45.534;9.242;2024-03-06T20:52:52;15.50;48.50
43963;DHT22;29622;45.534;9.242;2024-03-06T20:57:52;15.10;48.60
43963;DHT22;29622;45.534;9.242;2024-03-06T21:02:53;14.90;49.00
43963;DHT22;29622;45.534;9.242;2024-03-06T21:07:56;15.10;50.00
43963;DHT22;29622;45.534;9.242;2024-03-06T21:12:57;15.40;49.80
43963;DHT22;29622;45.534;9.242;2024-03-06T21:17:59;15.00;49.40
43963;DHT22;29622;45.534;9.242;2024-03-06T21:23:05;14.40;49.70
43963;DHT22;29622;45.534;9.242;2024-03-06T21:28:09;14.00;50.20
43963;DHT22;29622;45.534;9.242;2024-03-06T21:33:19;13.70;50.60
43963;DHT22;29622;45.534;9.242;2024-03-06T21:38:23;13.60;50.90
43963;DHT22;29622;45.534;9.242;2024-03-06T21:43:26;13.40;51.20
43963;DHT22;29622;45.534;9.242;2024-03-06T21:48:30;13.30;51.40
43963;DHT22;29622;45.534;9.242;2024-03-06T21:53:31;13.10;51.60
43963;DHT22;29622;45.534;9.242;2024-03-06T21:58:50;13.00;51.90
43963;DHT22;29622;45.534;9.242;2024-03-06T22:03:51;12.90;52.00
43963;DHT22;29622;45.534;9.242;2024-03-06T22:14:04;12.70;52.20
43963;DHT22;29622;45.534;9.242;2024-03-06T22:19:06;12.60;52.50
43963;DHT22;29622;45.534;9.242;2024-03-06T22:24:40;12.70;52.60
43963;DHT22;29622;45.534;9.242;2024-03-06T22:29:42;12.70;52.60
43963;DHT22;29622;45.534;9.242;2024-03-06T22:34:43;12.60;52.90
43963;DHT22;29622;45.534;9.242;2024-03-06T22:39:44;12.60;53.10
43963;DHT22;29622;45.534;9.242;2024-03-06T22:44:45;12.40;53.20
43963;DHT22;29622;45.534;9.242;2024-03-06T22:49:52;12.30;53.50
43963;DHT22;29622;45.534;9.242;2024-03-06T22:54:53;12.30;53.80
43963;DHT22;29622;45.534;9.242;2024-03-06T23:00:03;12.40;54.00
43963;DHT22;29622;45.534;9.242;2024-03-06T23:05:08;12.30;54.00
43963;DHT22;29622;45.534;9.242;2024-03-06T23:10:15;12.40;54.10
43963;DHT22;29622;45.534;9.242;2024-03-06T23:15:20;12.40;54.00
43963;DHT22;29622;45.534;9.242;2024-03-06T23:20:21;12.30;54.20
43963;DHT22;29622;45.534;9.242;2024-03-06T23:25:22;12.30;54.30
43963;DHT22;29622;45.534;9.242;2024-03-06T23:30:24;12.20;54.30
43963;DHT22;29622;45.534;9.242;2024-03-06T23:35:25;12.00;54.30
43963;DHT22;29622;45.534;9.242;2024-03-06T23:40:29;11.90;54.50
43963;DHT22;29622;45.534;9.242;2024-03-06T23:45:30;11.80;54.70
43963;DHT22;29622;45.534;9.242;2024-03-06T23:50:34;11.80;54.80
43963;DHT22;29622;45.534;9.242;2024-03-06T23:55:35;11.70;54.80
